createdAt,value
2022-12-09T00:01:07.584Z,3.02
2022-12-09T00:03:35.617Z,2.97
2022-12-09T00:06:16.025Z,2.99
2022-12-09T00:08:44.637Z,3.00
2022-12-09T00:11:12.763Z,2.95
2022-12-09T00:13:40.414Z,3.03
2022-12-09T00:16:10.843Z,2.99
2022-12-09T00:18:39.204Z,3.04
2022-12-09T00:21:14.646Z,3.06
2022-12-09T00:23:42.389Z,3.00
2022-12-09T00:26:09.945Z,3.01
2022-12-09T00:28:38.190Z,2.94
2022-12-09T00:31:06.817Z,3.02
2022-12-09T00:33:35.269Z,2.97
2022-12-09T00:36:06.323Z,2.90
2022-12-09T00:38:34.059Z,3.01
2022-12-09T00:41:02.527Z,3.07
2022-12-09T00:43:30.280Z,3.05
2022-12-09T00:45:58.198Z,2.95
2022-12-09T00:48:26.725Z,2.93
2022-12-09T00:50:54.958Z,3.06
2022-12-09T00:53:22.950Z,3.17
2022-12-09T00:55:50.646Z,3.21
2022-12-09T00:58:18.618Z,3.27
2022-12-09T01:00:46.484Z,3.15
2022-12-09T01:03:16.179Z,3.06
2022-12-09T01:05:44.465Z,2.86
2022-12-09T01:08:13.166Z,2.90
2022-12-09T01:10:43.040Z,2.97
2022-12-09T01:13:12.581Z,2.94
2022-12-09T01:15:40.852Z,2.94
2022-12-09T01:18:09.085Z,2.90
2022-12-09T01:20:36.539Z,2.88
2022-12-09T01:23:03.933Z,2.90
2022-12-09T01:25:31.311Z,2.91
2022-12-09T01:27:59.126Z,2.85
2022-12-09T01:30:26.645Z,2.86
2022-12-09T01:32:54.187Z,2.89
2022-12-09T01:35:22.269Z,2.85
2022-12-09T01:37:50.142Z,2.88
2022-12-09T01:40:19.003Z,2.90
2022-12-09T01:42:46.905Z,2.87
2022-12-09T01:45:22.036Z,2.87
2022-12-09T01:48:11.337Z,2.84
2022-12-09T01:50:47.423Z,2.84
2022-12-09T01:53:17.359Z,2.79
2022-12-09T01:55:45.672Z,2.78
2022-12-09T01:58:14.490Z,2.64
2022-12-09T02:00:42.903Z,2.71
2022-12-09T02:03:10.659Z,2.87
2022-12-09T02:05:38.653Z,2.79
2022-12-09T02:08:18.721Z,2.75
2022-12-09T02:11:15.613Z,2.74
2022-12-09T02:14:01.404Z,2.70
2022-12-09T02:16:34.829Z,2.59
2022-12-09T02:19:05.333Z,2.58
2022-12-09T02:21:41.042Z,2.54
2022-12-09T02:24:43.438Z,2.50
2022-12-09T02:27:23.572Z,2.37
2022-12-09T02:30:18.329Z,2.40
2022-12-09T02:33:07.285Z,2.35
2022-12-09T02:36:01.542Z,2.29
2022-12-09T02:38:32.512Z,2.30
2022-12-09T02:41:03.639Z,2.33
2022-12-09T02:43:38.015Z,2.37
2022-12-09T02:46:09.064Z,2.24
2022-12-09T02:48:43.047Z,2.09
2022-12-09T02:51:15.264Z,2.14
2022-12-09T02:53:46.733Z,2.08
2022-12-09T02:56:15.732Z,2.01
2022-12-09T02:58:43.486Z,2.09
2022-12-09T03:01:29.567Z,2.15
2022-12-09T03:03:57.458Z,2.36
2022-12-09T03:06:31.462Z,2.53
2022-12-09T03:09:24.101Z,2.39
2022-12-09T03:11:53.233Z,2.32
2022-12-09T03:14:40.335Z,2.29
2022-12-09T03:17:14.108Z,2.34
2022-12-09T03:19:49.148Z,2.40
2022-12-09T03:22:20.211Z,2.33
2022-12-09T03:24:54.403Z,2.42
2022-12-09T03:27:38.312Z,2.65
2022-12-09T03:30:09.060Z,2.48
2022-12-09T03:32:39.199Z,2.47
2022-12-09T03:35:13.215Z,2.37
2022-12-09T03:37:44.270Z,2.58
2022-12-09T03:40:17.167Z,2.57
2022-12-09T03:42:58.984Z,2.61
2022-12-09T03:45:27.194Z,2.60
2022-12-09T03:47:55.678Z,2.57
2022-12-09T03:50:27.497Z,2.66
2022-12-09T03:53:05.870Z,2.65
2022-12-09T03:55:46.899Z,2.62
2022-12-09T03:58:16.558Z,2.55
2022-12-09T04:00:44.962Z,2.57
2022-12-09T04:03:14.753Z,2.49
2022-12-09T04:05:43.255Z,2.48
2022-12-09T04:08:11.460Z,2.54
2022-12-09T04:10:39.389Z,2.32
2022-12-09T04:13:07.341Z,2.31
2022-12-09T04:15:34.779Z,2.47
2022-12-09T04:18:02.436Z,2.37
2022-12-09T04:20:29.777Z,2.35
2022-12-09T04:22:57.235Z,2.41
2022-12-09T04:25:25.542Z,2.29
2022-12-09T04:27:53.110Z,2.25
2022-12-09T04:30:20.767Z,2.26
2022-12-09T04:32:48.535Z,2.12
2022-12-09T04:35:16.292Z,2.24
2022-12-09T04:37:43.915Z,2.20
2022-12-09T04:40:13.651Z,2.15
2022-12-09T04:42:44.238Z,1.96
2022-12-09T04:45:12.003Z,1.96
2022-12-09T04:47:39.847Z,1.92
2022-12-09T04:50:08.073Z,1.94
2022-12-09T04:52:36.098Z,1.87
2022-12-09T04:55:03.907Z,1.78
2022-12-09T04:57:31.472Z,1.82
2022-12-09T04:59:58.780Z,1.86
2022-12-09T05:02:26.041Z,1.97
2022-12-09T05:04:53.462Z,2.22
2022-12-09T05:07:23.891Z,2.20
2022-12-09T05:09:51.630Z,2.19
2022-12-09T05:12:19.449Z,2.16
2022-12-09T05:14:46.982Z,2.10
2022-12-09T05:17:14.480Z,2.12
2022-12-09T05:19:42.078Z,1.99
2022-12-09T05:22:09.625Z,1.94
2022-12-09T05:24:37.106Z,1.88
2022-12-09T05:27:04.386Z,1.95
2022-12-09T05:29:32.044Z,2.08
2022-12-09T05:31:59.600Z,2.13
2022-12-09T05:34:27.662Z,1.97
2022-12-09T05:36:55.660Z,2.08
2022-12-09T05:39:23.955Z,2.18
2022-12-09T05:41:51.716Z,2.12
2022-12-09T05:44:19.452Z,2.21
2022-12-09T05:46:47.151Z,2.25
2022-12-09T05:49:15.245Z,2.06
2022-12-09T05:51:43.248Z,2.24
2022-12-09T05:54:11.147Z,2.41
2022-12-09T05:56:42.840Z,2.37
2022-12-09T05:59:13.859Z,2.28
2022-12-09T06:01:41.419Z,2.21
2022-12-09T06:04:09.336Z,2.14
2022-12-09T06:06:37.260Z,2.03
2022-12-09T06:09:11.593Z,1.95
2022-12-09T06:11:41.148Z,2.02
2022-12-09T06:14:10.177Z,2.06
2022-12-09T06:16:38.813Z,2.23
2022-12-09T06:19:06.802Z,2.29
2022-12-09T06:21:34.726Z,2.15
2022-12-09T06:24:02.537Z,2.19
2022-12-09T06:26:30.723Z,2.13
2022-12-09T06:28:59.794Z,2.05
2022-12-09T06:31:28.646Z,2.00
2022-12-09T06:33:58.448Z,1.86
2022-12-09T06:36:29.626Z,1.78
2022-12-09T06:39:05.860Z,1.63
2022-12-09T06:41:37.266Z,1.71
2022-12-09T06:44:04.956Z,1.65
2022-12-09T06:46:32.831Z,1.51
2022-12-09T06:49:01.004Z,1.51
2022-12-09T06:51:30.196Z,1.56
2022-12-09T06:53:58.049Z,1.37
2022-12-09T06:56:26.177Z,1.39
2022-12-09T06:58:53.719Z,1.27
2022-12-09T07:01:24.859Z,1.28
2022-12-09T07:03:56.653Z,1.15
2022-12-09T07:06:39.157Z,1.19
2022-12-09T07:09:13.447Z,1.24
2022-12-09T07:11:47.268Z,1.21
2022-12-09T07:14:16.857Z,1.27
2022-12-09T07:16:45.338Z,1.12
2022-12-09T07:19:18.356Z,1.23
2022-12-09T07:21:47.013Z,1.29
2022-12-09T07:24:15.295Z,1.22
2022-12-09T07:26:43.388Z,0.97
2022-12-09T07:29:11.142Z,0.82
2022-12-09T07:31:39.037Z,0.79
2022-12-09T07:34:07.030Z,0.95
2022-12-09T07:36:35.853Z,0.86
2022-12-09T07:39:15.422Z,0.82
2022-12-09T07:41:43.414Z,0.91
2022-12-09T07:44:12.740Z,1.00
2022-12-09T07:46:40.852Z,0.94
2022-12-09T07:49:10.951Z,0.82
2022-12-09T07:51:40.222Z,0.84
2022-12-09T07:54:11.842Z,0.91
2022-12-09T07:56:39.709Z,0.90
2022-12-09T07:59:09.708Z,0.95
2022-12-09T08:01:37.840Z,1.09
2022-12-09T08:04:06.503Z,1.15
2022-12-09T08:06:36.116Z,1.44
2022-12-09T08:09:07.354Z,1.70
2022-12-09T08:11:35.964Z,1.97
2022-12-09T08:14:10.994Z,2.27
2022-12-09T08:16:41.879Z,2.50
2022-12-09T08:19:10.358Z,2.86
2022-12-09T08:21:39.027Z,3.23
2022-12-09T08:24:08.020Z,3.52
2022-12-09T08:26:37.637Z,3.72
2022-12-09T08:29:11.082Z,4.00
2022-12-09T08:31:42.376Z,4.44
2022-12-09T08:34:11.144Z,4.78
2022-12-09T08:36:39.286Z,5.04
2022-12-09T08:39:07.853Z,5.31
2022-12-09T08:41:38.602Z,5.40
2022-12-09T08:44:08.172Z,5.58
2022-12-09T08:46:38.042Z,5.58
2022-12-09T08:49:07.309Z,5.57
2022-12-09T08:51:35.860Z,5.61
2022-12-09T08:54:05.083Z,5.55
2022-12-09T08:56:32.815Z,5.51
2022-12-09T08:59:00.618Z,5.60
2022-12-09T09:01:35.358Z,5.80
2022-12-09T09:04:09.889Z,6.08
2022-12-09T09:06:40.936Z,6.23
2022-12-09T09:09:10.877Z,6.43
2022-12-09T09:11:39.449Z,6.60
2022-12-09T09:14:09.554Z,6.71
2022-12-09T09:16:40.026Z,6.74
2022-12-09T09:19:08.942Z,6.85
2022-12-09T09:21:37.003Z,6.87
2022-12-09T09:24:12.927Z,6.88
2022-12-09T09:26:43.505Z,6.78
2022-12-09T09:29:13.486Z,6.86
2022-12-09T09:31:41.285Z,6.98
2022-12-09T09:34:10.219Z,6.93
2022-12-09T09:36:37.876Z,6.88
2022-12-09T09:39:05.427Z,6.66
2022-12-09T09:41:53.634Z,6.30
2022-12-09T09:44:28.137Z,6.09
2022-12-09T09:46:57.643Z,5.69
2022-12-09T09:50:01.973Z,5.67
2022-12-09T09:52:31.736Z,5.65
2022-12-09T09:54:59.502Z,5.59
2022-12-09T09:57:41.145Z,5.99
2022-12-09T10:00:28.863Z,6.37
2022-12-09T10:03:14.130Z,6.63
2022-12-09T10:06:09.798Z,6.69
2022-12-09T10:08:49.633Z,6.52
2022-12-09T10:11:23.848Z,6.75
2022-12-09T10:13:58.921Z,6.81
2022-12-09T10:16:34.769Z,6.99
2022-12-09T10:19:30.994Z,7.12
2022-12-09T10:22:02.511Z,7.22
2022-12-09T10:24:40.161Z,7.22
2022-12-09T10:27:38.088Z,7.12
2022-12-09T10:30:14.531Z,7.18
2022-12-09T10:32:43.440Z,7.13
2022-12-09T10:35:23.951Z,7.02
2022-12-09T10:37:54.201Z,7.02
2022-12-09T10:40:50.462Z,7.06
2022-12-09T10:43:35.267Z,6.97
2022-12-09T10:46:17.909Z,7.07
2022-12-09T10:48:47.464Z,7.17
2022-12-09T10:51:21.694Z,7.45
2022-12-09T10:54:00.058Z,7.71
2022-12-09T10:56:37.740Z,7.92
2022-12-09T10:59:19.611Z,8.01
2022-12-09T11:01:52.975Z,7.96
2022-12-09T11:04:26.547Z,8.06
2022-12-09T11:07:00.151Z,8.12
2022-12-09T11:09:34.482Z,8.31
2022-12-09T11:12:05.971Z,8.47
2022-12-09T11:14:40.569Z,8.48
2022-12-09T11:17:22.614Z,8.65
2022-12-09T11:19:53.520Z,8.76
2022-12-09T11:22:33.476Z,8.70
2022-12-09T11:25:16.552Z,8.85
2022-12-09T11:27:52.285Z,9.01
2022-12-09T11:30:30.790Z,8.95
2022-12-09T11:33:07.898Z,8.87
2022-12-09T11:35:52.847Z,8.81
2022-12-09T11:38:41.703Z,8.81
2022-12-09T11:41:12.295Z,8.67
2022-12-09T11:43:47.730Z,8.60
2022-12-09T11:46:15.218Z,8.59
2022-12-09T11:48:56.728Z,8.51
2022-12-09T11:51:26.956Z,8.48
2022-12-09T11:54:03.675Z,8.19
2022-12-09T11:56:33.132Z,8.18
2022-12-09T11:59:06.828Z,8.38
2022-12-09T12:02:05.969Z,8.44
2022-12-09T12:04:39.414Z,8.28
2022-12-09T12:07:21.317Z,8.27
2022-12-09T12:09:57.528Z,8.28
2022-12-09T12:12:30.815Z,8.35
2022-12-09T12:15:10.725Z,8.29
2022-12-09T12:17:43.469Z,8.18
2022-12-09T12:20:13.375Z,7.99
2022-12-09T12:23:16.514Z,7.65
2022-12-09T12:25:54.275Z,7.62
2022-12-09T12:28:39.586Z,7.59
2022-12-09T12:31:58.113Z,7.64
2022-12-09T12:34:40.562Z,7.80
2022-12-09T12:37:39.065Z,7.84
2022-12-09T12:40:07.355Z,7.65
2022-12-09T12:43:07.293Z,7.52
2022-12-09T12:46:17.342Z,7.20
2022-12-09T12:49:00.270Z,7.32
2022-12-09T12:51:58.219Z,7.21
2022-12-09T12:54:49.734Z,7.18
2022-12-09T12:57:23.974Z,7.02
2022-12-09T12:59:54.703Z,6.81
2022-12-09T13:02:31.440Z,6.76
2022-12-09T13:05:12.056Z,6.70
2022-12-09T13:08:16.224Z,6.71
2022-12-09T13:10:55.851Z,6.59
2022-12-09T13:13:39.789Z,6.66
2022-12-09T13:16:16.616Z,6.59
2022-12-09T13:18:45.233Z,6.32
2022-12-09T13:21:13.323Z,6.33
2022-12-09T13:23:55.592Z,6.12
2022-12-09T13:26:44.981Z,6.12
2022-12-09T13:29:36.180Z,6.12
2022-12-09T13:32:28.065Z,6.04
2022-12-09T13:35:04.982Z,6.07
2022-12-09T13:37:44.618Z,6.00
2022-12-09T13:40:21.304Z,5.94
2022-12-09T13:42:53.198Z,6.07
2022-12-09T13:45:23.857Z,5.85
2022-12-09T13:47:54.886Z,5.85
2022-12-09T13:50:39.777Z,5.93
2022-12-09T13:53:27.537Z,5.98
2022-12-09T13:55:59.136Z,6.03
2022-12-09T13:58:33.008Z,6.05
2022-12-09T14:01:12.372Z,6.16
2022-12-09T14:04:01.563Z,6.13
2022-12-09T14:06:47.318Z,6.09
2022-12-09T14:09:43.147Z,6.14
2022-12-09T14:12:13.672Z,6.02
2022-12-09T14:14:44.064Z,6.05
2022-12-09T14:17:29.024Z,5.90
2022-12-09T14:20:18.476Z,5.90
2022-12-09T14:23:09.878Z,5.84
2022-12-09T14:25:37.394Z,5.93
2022-12-09T14:28:10.921Z,5.74
2022-12-09T14:30:52.186Z,5.76
2022-12-09T14:33:29.713Z,5.69
2022-12-09T14:36:13.221Z,5.73
2022-12-09T14:39:24.351Z,5.79
2022-12-09T14:41:52.689Z,5.72
2022-12-09T14:44:36.439Z,5.84
2022-12-09T14:47:15.925Z,5.71
2022-12-09T14:49:49.151Z,5.71
2022-12-09T14:52:32.261Z,5.75
2022-12-09T14:55:03.309Z,5.61
2022-12-09T14:57:37.276Z,5.61
2022-12-09T15:00:06.947Z,5.64
2022-12-09T15:02:34.929Z,5.76
2022-12-09T15:05:03.304Z,5.72
2022-12-09T15:07:33.025Z,5.66
2022-12-09T15:10:06.316Z,5.62
2022-12-09T15:13:03.831Z,5.59
2022-12-09T15:15:33.059Z,5.60
2022-12-09T15:18:05.062Z,5.50
2022-12-09T15:20:36.695Z,5.58
2022-12-09T15:23:20.757Z,5.64
2022-12-09T15:25:52.622Z,5.35
2022-12-09T15:28:26.555Z,5.48
2022-12-09T15:31:03.039Z,5.62
2022-12-09T15:33:39.976Z,5.81
2022-12-09T15:36:15.219Z,6.03
2022-12-09T15:38:49.593Z,6.21
2022-12-09T15:41:37.512Z,6.36
2022-12-09T15:44:11.337Z,6.56
2022-12-09T15:46:42.067Z,6.62
2022-12-09T15:49:13.973Z,6.59
2022-12-09T15:51:44.545Z,6.35
2022-12-09T15:54:18.971Z,6.22
2022-12-09T15:57:14.898Z,5.82
2022-12-09T15:59:47.764Z,5.67
2022-12-09T16:02:28.189Z,5.27
2022-12-09T16:04:57.894Z,5.10
2022-12-09T16:07:25.383Z,5.13
2022-12-09T16:10:07.322Z,5.01
2022-12-09T16:12:36.563Z,4.85
2022-12-09T16:15:06.980Z,4.86
2022-12-09T16:17:52.404Z,4.63
2022-12-09T16:20:32.537Z,4.64
2022-12-09T16:23:01.973Z,4.46
2022-12-09T16:25:35.696Z,4.29
2022-12-09T16:28:05.886Z,4.30
2022-12-09T16:30:45.782Z,4.41
2022-12-09T16:33:19.542Z,4.10
2022-12-09T16:36:02.339Z,4.02
2022-12-09T16:38:32.650Z,3.98
2022-12-09T16:41:11.718Z,3.97
2022-12-09T16:43:54.437Z,3.88
2022-12-09T16:46:41.554Z,3.85
2022-12-09T16:49:09.132Z,3.92
2022-12-09T16:51:37.512Z,3.84
2022-12-09T16:54:18.093Z,3.83
2022-12-09T16:56:48.157Z,3.81
2022-12-09T16:59:15.602Z,3.76
2022-12-09T17:01:43.235Z,3.77
2022-12-09T17:04:18.023Z,3.72
2022-12-09T17:06:45.964Z,3.75
2022-12-09T17:09:13.659Z,3.73
2022-12-09T17:11:46.967Z,3.68
2022-12-09T17:14:16.686Z,3.53
2022-12-09T17:16:44.577Z,3.46
2022-12-09T17:19:13.348Z,3.50
2022-12-09T17:21:40.602Z,3.43
2022-12-09T17:24:10.122Z,3.48
2022-12-09T17:26:37.709Z,3.42
2022-12-09T17:29:07.256Z,3.35
2022-12-09T17:31:34.841Z,3.29
2022-12-09T17:34:02.410Z,3.29
2022-12-09T17:36:29.697Z,3.32
2022-12-09T17:39:00.243Z,3.31
2022-12-09T17:41:27.648Z,3.26
2022-12-09T17:43:54.851Z,3.40
2022-12-09T17:46:22.151Z,3.36
2022-12-09T17:48:49.329Z,3.30
2022-12-09T17:51:19.521Z,3.22
2022-12-09T17:53:47.556Z,3.45
2022-12-09T17:56:16.429Z,3.37
2022-12-09T17:58:44.004Z,3.25
2022-12-09T18:01:14.095Z,3.36
2022-12-09T18:03:55.622Z,3.42
2022-12-09T18:06:24.928Z,3.43
2022-12-09T18:08:52.449Z,3.41
2022-12-09T18:11:21.704Z,3.41
2022-12-09T18:13:50.723Z,3.31
2022-12-09T18:16:18.249Z,3.40
2022-12-09T18:18:45.851Z,3.30
2022-12-09T18:21:16.050Z,3.19
2022-12-09T18:23:43.940Z,3.16
2022-12-09T18:26:12.486Z,3.05
2022-12-09T18:28:40.138Z,3.02
2022-12-09T18:31:08.288Z,2.98
2022-12-09T18:33:36.439Z,2.96
2022-12-09T18:36:11.576Z,2.92
2022-12-09T18:38:38.967Z,2.87
2022-12-09T18:41:13.345Z,2.81
2022-12-09T18:43:41.884Z,2.72
2022-12-09T18:46:11.185Z,2.72
2022-12-09T18:48:39.552Z,2.59
2022-12-09T18:51:09.725Z,2.50
2022-12-09T18:53:36.951Z,2.38
2022-12-09T18:56:09.651Z,2.38
2022-12-09T18:59:04.945Z,2.32
2022-12-09T19:01:25.979Z,2.33
2022-12-09T19:03:54.299Z,2.35
2022-12-09T19:06:23.298Z,2.36
2022-12-09T19:08:53.838Z,2.38
2022-12-09T19:11:21.840Z,2.33
2022-12-09T19:13:49.251Z,2.30
2022-12-09T19:16:16.935Z,2.42
2022-12-09T19:18:44.526Z,2.38
2022-12-09T19:21:13.697Z,2.25
2022-12-09T19:23:41.885Z,2.22
2022-12-09T19:26:15.674Z,2.20
2022-12-09T19:28:47.862Z,2.18
2022-12-09T19:31:15.084Z,2.22
2022-12-09T19:33:42.248Z,2.18
2022-12-09T19:36:10.157Z,2.15
2022-12-09T19:38:37.745Z,2.08
2022-12-09T19:41:05.516Z,2.02
2022-12-09T19:43:32.875Z,2.01
2022-12-09T19:46:04.743Z,1.88
2022-12-09T19:48:33.709Z,1.70
2022-12-09T19:51:08.996Z,1.64
2022-12-09T19:53:37.054Z,1.56
2022-12-09T19:56:06.316Z,1.56
2022-12-09T19:58:35.513Z,1.66
2022-12-09T20:01:15.797Z,1.61
2022-12-09T20:03:44.128Z,1.62
2022-12-09T20:06:12.689Z,1.67
2022-12-09T20:08:40.337Z,1.71
2022-12-09T20:11:11.434Z,1.64
2022-12-09T20:13:38.758Z,1.60
2022-12-09T20:16:07.290Z,1.64
2022-12-09T20:18:36.977Z,1.56
2022-12-09T20:21:05.255Z,1.52
2022-12-09T20:23:32.543Z,1.57
2022-12-09T20:26:05.736Z,1.68
2022-12-09T20:28:33.368Z,1.58
2022-12-09T20:31:04.608Z,1.46
2022-12-09T20:33:31.878Z,1.29
2022-12-09T20:36:09.789Z,1.27
2022-12-09T20:38:37.463Z,1.17
2022-12-09T20:41:05.991Z,1.13
2022-12-09T20:43:39.529Z,1.11
2022-12-09T20:46:07.830Z,1.08
2022-12-09T20:48:35.456Z,1.03
2022-12-09T20:51:03.778Z,1.01
2022-12-09T20:53:34.291Z,1.02
2022-12-09T20:56:02.499Z,1.03
2022-12-09T20:58:31.939Z,1.07
2022-12-09T21:01:11.919Z,1.04
2022-12-09T21:03:39.694Z,1.14
2022-12-09T21:06:07.709Z,1.08
2022-12-09T21:08:35.453Z,1.06
2022-12-09T21:11:07.805Z,1.03
2022-12-09T21:13:39.595Z,1.04
2022-12-09T21:16:10.230Z,0.96
2022-12-09T21:18:37.555Z,0.95
2022-12-09T21:21:06.209Z,0.93
2022-12-09T21:23:36.887Z,0.85
2022-12-09T21:26:08.398Z,0.77
2022-12-09T21:28:37.023Z,0.73
2022-12-09T21:31:12.285Z,0.72
2022-12-09T21:33:40.185Z,0.67
2022-12-09T21:36:08.257Z,0.56
2022-12-09T21:38:36.369Z,0.50
2022-12-09T21:41:04.544Z,0.43
2022-12-09T21:43:32.661Z,0.34
2022-12-09T21:46:06.845Z,0.28
2022-12-09T21:48:34.354Z,0.24
2022-12-09T21:51:02.192Z,0.28
2022-12-09T21:53:29.938Z,0.34
2022-12-09T21:56:02.517Z,0.36
2022-12-09T21:58:30.994Z,0.40
2022-12-09T22:00:58.693Z,0.44
2022-12-09T22:03:26.616Z,0.45
2022-12-09T22:05:58.153Z,0.46
2022-12-09T22:08:26.743Z,0.48
2022-12-09T22:10:54.189Z,0.53
2022-12-09T22:13:22.790Z,0.49
2022-12-09T22:15:49.888Z,0.48
2022-12-09T22:18:17.527Z,0.46
2022-12-09T22:21:15.998Z,0.53
2022-12-09T22:23:32.225Z,0.47
2022-12-09T22:25:59.430Z,0.42
2022-12-09T22:28:28.567Z,0.45
2022-12-09T22:30:55.794Z,0.52
2022-12-09T22:33:23.097Z,0.42
2022-12-09T22:35:50.312Z,0.40
2022-12-09T22:38:17.639Z,0.39
2022-12-09T22:40:46.287Z,0.26
2022-12-09T22:43:13.559Z,0.30
2022-12-09T22:45:40.759Z,0.28
2022-12-09T22:48:07.944Z,0.24
2022-12-09T22:50:35.630Z,0.14
2022-12-09T22:53:02.973Z,0.07
2022-12-09T22:55:30.184Z,-0.06
2022-12-09T22:57:57.405Z,-0.12
2022-12-09T23:00:24.582Z,-0.16
2022-12-09T23:02:51.892Z,-0.13
2022-12-09T23:05:19.270Z,-0.10
2022-12-09T23:07:46.463Z,-0.19
2022-12-09T23:10:13.711Z,-0.19
2022-12-09T23:12:40.910Z,-0.09
2022-12-09T23:15:08.197Z,0.02
2022-12-09T23:17:35.415Z,0.07
2022-12-09T23:20:03.061Z,0.08
2022-12-09T23:22:30.402Z,0.11
2022-12-09T23:24:57.607Z,0.12
2022-12-09T23:27:24.955Z,0.18
2022-12-09T23:29:52.091Z,-0.04
2022-12-09T23:32:19.388Z,-0.19
2022-12-09T23:34:46.600Z,-0.37
2022-12-09T23:37:15.023Z,-0.39
2022-12-09T23:39:42.965Z,-0.41
2022-12-09T23:42:10.184Z,-0.37
2022-12-09T23:44:37.601Z,-0.42
2022-12-09T23:47:05.056Z,-0.44
2022-12-09T23:49:32.501Z,-0.44
2022-12-09T23:51:59.941Z,-0.47
2022-12-09T23:54:27.210Z,-0.35
2022-12-09T23:56:54.624Z,-0.28
2022-12-09T23:59:22.523Z,-0.32
